weather.gov     
National Weather Service

Terminal Aerodrome Forecast
NWS Homepage
This page is being discontinued on March 12, 2014.
The same data is available at this site. Please update your bookmarks.
Thank you, and we apologize for the inconvenience.
Please send an email to SR-SRH.Webmaster@noaa.gov with any concerns.


Current Version
Previous Version:    01  02  03  04  05  06  07  08  09  10  11  12  13  14  15  16  17  18  19  20  21  22  23  24  25  26  27  28  29  30  
   31  
[Printable]
321
FTUS46 KPDT 221100 AAA
TAFALW
TAF AMD
KALW 221134Z 2212/2312 16006KT P6SM OVC100
     FM221700 22006KT P6SM SCT060 BKN100
     FM222300 26006KT P6SM SCT060
     FM230300 26006KT P6SM VCTS SCT060CB BKN120 PROB30 2303/2306 5SM
      -TSRA BKN060CB OVC120
     FM230600 14006KT P6SM VCSH SCT060 BKN120=


U.S. Dept. of Commerce
NOAA National Weather Service
1325 East West Highway
Silver Spring, MD 20910
E-mail: w-nws.webmaster@noaa.gov
Page last modified: May 16, 2007
NATIONAL WEATHER SERVICE: for Safety, for Work, for Fun - FOR LIFE